Time;durP1;ratioP1;P1;durP2;ratioP2;P2;SDS_P1;SDS_P2;PMS_P1;PMS_P2;Temp;Humidity;BMP_temperature;BMP_pressure;BME280_temperature;BME280_humidity;BME280_pressure;Samples;Min_cycle;Max_cycle;Signal;HPM_P1;HPM_P2
2022/02/21 05:02:40;;;;;;;1.75;1.02;;;4.80;99.90;;;;;;4911857;29;20708;-68
2022/02/21 05:05:10;;;;;;;4.03;1.35;;;4.90;99.90;;;;;;4914681;29;20246;-68
2022/02/21 05:07:37;;;;;;;4.88;1.70;;;4.90;99.90;;;;;;4934035;29;20678;-68
2022/02/21 05:10:04;;;;;;;3.33;1.30;;;4.90;99.90;;;;;;4919532;29;20258;-68
2022/02/21 05:12:31;;;;;;;5.07;1.90;;;4.90;99.90;;;;;;4933070;29;20229;-68
2022/02/21 05:14:58;;;;;;;6.78;1.35;;;5.00;99.90;;;;;;4922559;29;20227;-68
2022/02/21 05:17:24;;;;;;;3.42;1.30;;;5.00;99.90;;;;;;4925562;29;20217;-68
2022/02/21 05:19:52;;;;;;;4.90;1.88;;;5.10;99.90;;;;;;4915241;29;20214;-67
2022/02/21 05:22:20;;;;;;;12.13;2.50;;;5.10;99.90;;;;;;4914738;29;20223;-66
2022/02/21 05:24:47;;;;;;;8.85;2.05;;;5.10;99.90;;;;;;4915294;29;20620;-66
2022/02/21 05:27:14;;;;;;;6.53;2.17;;;5.10;99.90;;;;;;4915430;29;20643;-66
2022/02/21 05:29:41;;;;;;;7.28;2.13;;;5.10;99.90;;;;;;4914284;29;20266;-66
2022/02/21 05:32:10;;;;;;;6.28;1.30;;;5.10;99.90;;;;;;4915746;29;20226;-66
2022/02/21 05:34:37;;;;;;;3.70;1.17;;;5.10;99.90;;;;;;4910818;29;20207;-66
2022/02/21 05:37:05;;;;;;;6.70;2.05;;;5.10;99.90;;;;;;4901283;29;20256;-66
2022/02/21 05:39:33;;;;;;;3.25;1.35;;;5.10;99.90;;;;;;4895991;29;20507;-66
2022/02/21 05:42:00;;;;;;;3.03;2.35;;;5.10;99.90;;;;;;4925552;23;20241;-70
2022/02/21 05:44:26;;;;;;;6.65;1.13;;;5.00;99.90;;;;;;4914263;29;20277;-69
2022/02/21 05:46:53;;;;;;;11.50;1.75;;;5.00;99.90;;;;;;4914844;29;20210;-70
2022/02/21 05:49:20;;;;;;;9.55;2.42;;;5.00;99.90;;;;;;4914798;29;20210;-70
2022/02/21 05:51:46;;;;;;;2.75;0.90;;;4.90;99.90;;;;;;4914630;29;20230;-70
2022/02/21 05:54:14;;;;;;;10.00;1.90;;;4.90;99.90;;;;;;4906013;29;20652;-69
2022/02/21 05:56:41;;;;;;;10.75;1.80;;;4.90;99.90;;;;;;4894663;29;20206;-70
2022/02/21 05:59:08;;;;;;;3.50;1.70;;;4.90;99.90;;;;;;4902263;29;20206;-70
2022/02/21 06:01:35;;;;;;;2.65;1.50;;;4.90;99.90;;;;;;4898731;29;20227;-70
2022/02/21 06:04:01;;;;;;;3.53;1.85;;;4.80;99.90;;;;;;4901180;29;20241;-71
2022/02/21 06:06:28;;;;;;;6.50;1.90;;;4.80;99.90;;;;;;4900390;29;20239;-70
2022/02/21 06:08:55;;;;;;;7.72;1.95;;;4.80;99.90;;;;;;4899918;29;20207;-70
2022/02/21 06:11:23;;;;;;;4.90;2.17;;;4.70;99.90;;;;;;4901592;29;20267;-70
2022/02/21 06:13:49;;;;;;;3.15;1.67;;;4.80;99.90;;;;;;4898401;29;20203;-70
2022/02/21 06:16:16;;;;;;;9.50;1.88;;;4.70;99.90;;;;;;4898010;29;20259;-70
2022/02/21 06:18:43;;;;;;;8.07;2.05;;;4.80;99.90;;;;;;4895660;29;20214;-70
2022/02/21 06:21:09;;;;;;;6.35;1.80;;;4.80;99.90;;;;;;4895569;29;20234;-69
2022/02/21 06:23:36;;;;;;;4.75;1.70;;;4.80;99.90;;;;;;4895715;29;20615;-70
2022/02/21 06:26:03;;;;;;;5.45;3.05;;;4.80;99.90;;;;;;4894564;29;20210;-69
2022/02/21 06:28:31;;;;;;;1.10;1.10;;;4.80;99.90;;;;;;4894981;29;20211;-70
2022/02/21 06:30:58;;;;;;;11.85;1.95;;;4.80;99.90;;;;;;4904276;29;20246;-70
2022/02/21 06:33:25;;;;;;;1.77;1.50;;;4.80;99.90;;;;;;4895528;29;20290;-70
2022/02/21 06:35:52;;;;;;;3.15;1.52;;;4.80;99.90;;;;;;4904787;29;20263;-70
2022/02/21 06:38:19;;;;;;;12.48;2.13;;;4.80;99.90;;;;;;4895458;29;20255;-70
2022/02/21 06:40:46;;;;;;;1.90;1.65;;;4.80;99.90;;;;;;4910163;29;20211;-70
2022/02/21 06:43:14;;;;;;;5.40;1.98;;;4.80;99.90;;;;;;4911019;29;20564;-70
2022/02/21 06:45:42;;;;;;;5.25;1.77;;;4.80;99.90;;;;;;4892387;29;20218;-70
2022/02/21 06:48:08;;;;;;;8.63;2.00;;;4.80;99.90;;;;;;4895924;29;20263;-70
2022/02/21 06:50:35;;;;;;;4.47;2.08;;;4.80;99.90;;;;;;4895363;29;20218;-70
2022/02/21 06:53:02;;;;;;;4.30;1.90;;;4.80;99.90;;;;;;4895471;29;20222;-70
2022/02/21 06:55:29;;;;;;;4.05;2.05;;;4.80;99.90;;;;;;4895610;29;20540;-70
2022/02/21 06:57:56;;;;;;;13.90;4.22;;;4.80;99.90;;;;;;4902567;29;20259;-70
2022/02/21 07:00:23;;;;;;;6.95;2.30;;;4.80;99.90;;;;;;4893328;29;20486;-70
2022/02/21 07:02:51;;;;;;;6.63;1.35;;;4.80;99.90;;;;;;4896149;29;20223;-70
2022/02/21 07:05:18;;;;;;;4.30;1.52;;;4.80;99.90;;;;;;4895395;29;20302;-70
2022/02/21 07:07:46;;;;;;;2.30;1.45;;;4.80;99.90;;;;;;4901612;29;20238;-70
2022/02/21 07:10:13;;;;;;;11.02;2.03;;;4.80;99.90;;;;;;4899987;29;20615;-70
2022/02/21 07:12:39;;;;;;;6.47;1.73;;;4.70;99.90;;;;;;4896598;29;20370;-70
2022/02/21 07:15:07;;;;;;;2.13;1.35;;;4.70;99.90;;;;;;4896000;29;20240;-70
2022/02/21 07:17:38;;;;;;;4.40;2.00;;;4.70;99.90;;;;;;4898749;29;20346;-70
2022/02/21 07:20:12;;;;;;;5.32;1.67;;;4.70;99.90;;;;;;4896770;29;20279;-71
2022/02/21 07:22:40;;;;;;;7.70;1.95;;;4.70;99.90;;;;;;4896118;29;20665;-70
2022/02/21 07:25:08;;;;;;;1.48;1.48;;;4.70;99.90;;;;;;4894565;29;20236;-70
2022/02/21 07:27:41;;;;;;;4.72;1.77;;;4.70;99.90;;;;;;4898045;29;20304;-70
2022/02/21 07:30:09;;;;;;;3.95;1.92;;;4.70;99.90;;;;;;4895515;29;20291;-70
2022/02/21 07:32:36;;;;;;;1.90;1.77;;;4.70;99.90;;;;;;4898640;29;20302;-70
2022/02/21 07:35:03;;;;;;;6.55;1.73;;;4.70;99.90;;;;;;4896758;29;20207;-70
2022/02/21 07:37:31;;;;;;;5.10;1.90;;;4.70;99.90;;;;;;4896853;29;20207;-70
2022/02/21 07:39:58;;;;;;;5.75;1.65;;;4.70;99.90;;;;;;4896657;29;20207;-70
2022/02/21 07:42:25;;;;;;;10.95;3.05;;;4.70;99.90;;;;;;4897989;29;20243;-69
2022/02/21 07:44:52;;;;;;;6.72;2.10;;;4.80;99.90;;;;;;4897146;29;20244;-70
2022/02/21 07:47:19;;;;;;;7.03;1.55;;;4.90;99.90;;;;;;4893674;29;20207;-69
2022/02/21 07:49:45;;;;;;;6.43;1.92;;;5.00;99.90;;;;;;4897415;29;20672;-70
2022/02/21 07:52:12;;;;;;;4.97;2.08;;;5.00;99.90;;;;;;4900852;29;20639;-70
2022/02/21 07:54:40;;;;;;;7.43;3.40;;;5.00;99.90;;;;;;4917179;29;20269;-69
2022/02/21 07:57:07;;;;;;;3.40;2.63;;;5.10;99.90;;;;;;4900284;29;20298;-70
2022/02/21 07:59:34;;;;;;;7.32;2.13;;;5.10;99.90;;;;;;4897163;29;20211;-69
2022/02/21 08:02:02;;;;;;;3.00;1.80;;;5.10;99.90;;;;;;4894377;29;20251;-70
2022/02/21 08:04:29;;;;;;;4.85;1.42;;;5.10;99.90;;;;;;4892646;29;20242;-70
2022/02/21 08:06:56;;;;;;;2.20;1.25;;;5.10;99.90;;;;;;4897010;29;20240;-70
2022/02/21 08:09:22;;;;;;;6.93;2.38;;;5.20;99.90;;;;;;4900251;29;20354;-70
2022/02/21 08:11:50;;;;;;;5.15;2.10;;;5.30;99.90;;;;;;4909276;29;20236;-71
2022/02/21 08:14:17;;;;;;;5.05;2.40;;;5.40;99.90;;;;;;4904054;29;20203;-70
2022/02/21 08:16:44;;;;;;;6.20;2.17;;;5.50;99.90;;;;;;4909775;29;20094;-70
2022/02/21 08:19:11;;;;;;;12.68;1.65;;;5.50;99.90;;;;;;4897989;29;20215;-71
2022/02/21 08:21:38;;;;;;;3.40;2.22;;;5.60;99.90;;;;;;4902575;29;20634;-70
2022/02/21 08:24:05;;;;;;;8.48;1.67;;;5.60;99.90;;;;;;4898180;29;20286;-70
2022/02/21 08:26:32;;;;;;;4.13;2.20;;;5.70;99.90;;;;;;4892354;29;20207;-70
2022/02/21 08:29:01;;;;;;;2.50;1.25;;;5.70;99.90;;;;;;4890345;29;20208;-70
2022/02/21 08:31:27;;;;;;;8.50;2.33;;;5.70;99.90;;;;;;4901085;29;20278;-71
2022/02/21 08:33:54;;;;;;;11.82;2.60;;;5.70;99.90;;;;;;4897529;29;20298;-71
2022/02/21 08:36:21;;;;;;;2.17;1.15;;;5.70;99.90;;;;;;4892155;29;20212;-70
2022/02/21 08:38:47;;;;;;;5.72;1.05;;;5.60;99.90;;;;;;4904350;29;20207;-71
2022/02/21 08:41:14;;;;;;;10.15;1.98;;;5.50;99.90;;;;;;4914492;29;20731;-70
2022/02/21 08:43:41;;;;;;;1.70;1.60;;;5.40;99.90;;;;;;4902183;29;20600;-70
2022/02/21 08:46:10;;;;;;;2.58;1.25;;;5.20;99.90;;;;;;4896072;29;20207;-71
2022/02/21 08:48:37;;;;;;;3.33;2.10;;;5.10;99.90;;;;;;4895546;29;20287;-70
2022/02/21 08:51:04;;;;;;;4.00;1.80;;;4.90;99.90;;;;;;4898756;29;20223;-72
2022/02/21 08:53:30;;;;;;;1.23;0.63;;;4.90;99.90;;;;;;4911782;29;20223;-70
2022/02/21 08:55:57;;;;;;;3.72;1.52;;;4.80;99.90;;;;;;4903008;29;20586;-71
2022/02/21 08:58:24;;;;;;;1.90;1.40;;;4.80;99.90;;;;;;4896490;29;20741;-71
2022/02/21 09:00:50;;;;;;;2.08;1.25;;;4.70;99.90;;;;;;4907646;29;20821;-71
2022/02/21 09:03:19;;;;;;;2.88;1.90;;;4.60;99.90;;;;;;4914319;29;20206;-71
2022/02/21 09:05:45;;;;;;;6.32;3.90;;;4.60;99.90;;;;;;4893296;29;20297;-70
2022/02/21 09:08:13;;;;;;;3.03;1.92;;;4.70;99.90;;;;;;4896665;29;20203;-70
2022/02/21 09:10:40;;;;;;;6.93;1.60;;;4.70;99.90;;;;;;4905262;29;20297;-71
2022/02/21 09:13:06;;;;;;;4.32;1.52;;;4.70;99.90;;;;;;4907647;29;20692;-70
2022/02/21 09:15:33;;;;;;;4.15;2.40;;;4.70;99.90;;;;;;4910417;29;20253;-70
2022/02/21 09:18:02;;;;;;;1.98;1.83;;;4.70;99.90;;;;;;4907857;29;20218;-71
2022/02/21 09:20:30;;;;;;;1.95;1.58;;;4.70;99.90;;;;;;4915283;29;20234;-71
2022/02/21 09:22:57;;;;;;;2.08;1.52;;;4.70;99.90;;;;;;4896474;29;20618;-70
2022/02/21 09:25:24;;;;;;;3.08;1.67;;;4.70;99.90;;;;;;4902786;29;20206;-70
2022/02/21 09:27:52;;;;;;;7.63;1.83;;;4.70;99.90;;;;;;4899043;29;20273;-71
2022/02/21 09:30:19;;;;;;;4.45;2.00;;;4.70;99.90;;;;;;4907698;29;20207;-70
2022/02/21 09:32:46;;;;;;;5.03;1.73;;;4.60;99.90;;;;;;4896836;29;20287;-70
2022/02/21 09:35:13;;;;;;;9.02;1.95;;;4.70;99.90;;;;;;4895882;29;20283;-71
2022/02/21 09:37:41;;;;;;;2.17;1.88;;;4.70;99.90;;;;;;4896852;29;20211;-71
2022/02/21 09:40:10;;;;;;;2.15;1.35;;;4.80;99.90;;;;;;4899543;29;20206;-70
2022/02/21 09:42:38;;;;;;;4.13;2.15;;;4.90;99.90;;;;;;4907496;29;20333;-71
2022/02/21 09:45:06;;;;;;;4.57;1.70;;;4.90;99.90;;;;;;4891297;29;20211;-71
2022/02/21 09:47:34;;;;;;;4.03;1.92;;;4.90;99.90;;;;;;4895457;29;20675;-70
2022/02/21 09:50:01;;;;;;;1.63;1.50;;;4.90;99.90;;;;;;4895569;29;20571;-71
2022/02/21 09:52:29;;;;;;;3.85;1.65;;;4.90;99.90;;;;;;4897147;29;20227;-71
2022/02/21 09:54:59;;;;;;;1.17;1.08;;;5.00;99.90;;;;;;4898266;29;20674;-71
2022/02/21 09:57:26;;;;;;;5.00;1.95;;;5.00;99.90;;;;;;4886312;29;20219;-71
2022/02/21 09:59:53;;;;;;;2.22;1.70;;;5.10;99.90;;;;;;4895884;29;20199;-70
2022/02/21 10:02:23;;;;;;;5.28;1.95;;;5.10;99.90;;;;;;4895826;29;20231;-70
2022/02/21 10:05:09;;;;;;;2.00;1.20;;;5.20;99.90;;;;;;4909972;29;20195;-70
2022/02/21 10:07:37;;;;;;;4.82;1.15;;;5.30;99.90;;;;;;4903865;29;20672;-70
2022/02/21 10:10:06;;;;;;;8.90;1.77;;;5.30;99.90;;;;;;4900694;29;20732;-70
2022/02/21 10:12:33;;;;;;;4.55;1.95;;;5.30;99.90;;;;;;4910736;29;20236;-70
2022/02/21 10:15:14;;;;;;;2.88;1.35;;;5.40;99.90;;;;;;4903618;29;20203;-70
2022/02/21 10:17:41;;;;;;;1.58;1.45;;;5.50;99.90;;;;;;4911200;29;20227;-70
2022/02/21 10:20:09;;;;;;;8.13;2.70;;;5.50;99.90;;;;;;4898455;29;20283;-69
2022/02/21 10:22:36;;;;;;;6.15;2.70;;;5.50;99.90;;;;;;4908310;29;20361;-72
2022/02/21 10:25:17;;;;;;;6.43;3.42;;;5.60;99.90;;;;;;4913594;29;20262;-72
2022/02/21 10:27:44;;;;;;;4.22;1.90;;;5.60;99.90;;;;;;4887981;29;20237;-72
2022/02/21 10:30:16;;;;;;;3.70;2.05;;;5.70;99.90;;;;;;4894998;29;20223;-70
2022/02/21 10:32:44;;;;;;;5.43;4.93;;;5.70;99.90;;;;;;4905896;29;20594;-70
2022/02/21 10:35:15;;;;;;;3.65;2.67;;;5.70;99.90;;;;;;4901099;29;20218;-70
2022/02/21 10:37:44;;;;;;;10.05;2.50;;;5.80;99.90;;;;;;4900429;29;20207;-70
2022/02/21 10:40:14;;;;;;;5.15;1.77;;;5.90;99.90;;;;;;4898907;29;20238;-69
2022/02/21 10:42:44;;;;;;;6.43;1.70;;;5.90;99.90;;;;;;4894638;29;20238;-72
2022/02/21 10:45:16;;;;;;;10.90;4.25;;;6.00;99.90;;;;;;4893942;29;20238;-71
2022/02/21 10:47:59;;;;;;;4.68;2.08;;;6.00;99.90;;;;;;4902078;29;20206;-71
2022/02/21 10:50:26;;;;;;;9.35;1.33;;;6.00;99.90;;;;;;4910537;29;20220;-71
2022/02/21 10:52:52;;;;;;;4.32;2.33;;;6.00;99.90;;;;;;4898617;29;20227;-71
2022/02/21 10:55:19;;;;;;;3.53;1.73;;;6.00;99.90;;;;;;4894567;29;20211;-71
2022/02/21 10:57:48;;;;;;;4.68;3.47;;;5.90;99.90;;;;;;4895316;29;20267;-71
2022/02/21 11:00:15;;;;;;;3.90;1.75;;;6.00;99.90;;;;;;4897798;29;20670;-71
2022/02/21 11:02:43;;;;;;;9.30;1.83;;;6.00;99.90;;;;;;4907440;29;20246;-71
2022/02/21 11:05:12;;;;;;;9.63;2.08;;;6.10;99.90;;;;;;4902981;29;20233;-71
2022/02/21 11:07:41;;;;;;;1.95;1.85;;;6.30;99.90;;;;;;4907083;29;20211;-69
2022/02/21 11:10:09;;;;;;;9.20;1.73;;;6.40;99.90;;;;;;4904894;29;20207;-71
2022/02/21 11:12:39;;;;;;;4.68;1.85;;;6.50;99.90;;;;;;4901094;29;20246;-72
2022/02/21 11:15:08;;;;;;;3.50;1.10;;;6.60;99.90;;;;;;4894449;29;20303;-68
2022/02/21 11:17:38;;;;;;;5.75;2.10;;;6.60;99.90;;;;;;4898452;29;20203;-69
2022/02/21 11:20:06;;;;;;;1.55;1.10;;;6.70;99.90;;;;;;4896937;29;20209;-69
2022/02/21 11:22:34;;;;;;;4.15;1.98;;;6.70;99.90;;;;;;4897764;29;20227;-69
2022/02/21 11:25:08;;;;;;;7.80;1.98;;;6.60;99.90;;;;;;4897917;29;20207;-69
2022/02/21 11:27:43;;;;;;;4.10;2.58;;;6.50;99.90;;;;;;4886744;29;20223;-69
2022/02/21 11:30:15;;;;;;;3.67;1.80;;;6.40;99.90;;;;;;4897769;29;20258;-69
2022/02/21 11:33:02;;;;;;;4.88;1.77;;;6.40;99.90;;;;;;4898247;29;20564;-70
2022/02/21 11:35:29;;;;;;;4.35;2.10;;;6.30;99.90;;;;;;4887623;29;20218;-69
2022/02/21 11:38:02;;;;;;;2.35;2.15;;;6.30;99.90;;;;;;4898276;29;20464;-69
2022/02/21 11:40:28;;;;;;;4.10;1.85;;;6.30;99.90;;;;;;4900109;29;20243;-69
2022/02/21 11:42:55;;;;;;;5.80;2.40;;;6.20;99.90;;;;;;4900419;29;20235;-69
2022/02/21 11:45:25;;;;;;;2.03;1.85;;;6.20;99.90;;;;;;4897954;29;20806;-71
2022/02/21 11:47:57;;;;;;;1.25;1.15;;;6.10;99.90;;;;;;4917719;23;20211;-68
2022/02/21 11:50:27;;;;;;;1.67;1.58;;;6.20;99.90;;;;;;4919980;29;20210;-67
2022/02/21 11:52:55;;;;;;;2.78;1.75;;;6.20;99.90;;;;;;4932504;29;20210;-68
2022/02/21 11:55:43;;;;;;;5.25;1.70;;;6.20;99.90;;;;;;4934629;29;20222;-67
2022/02/21 11:58:43;;;;;;;4.47;1.83;;;6.10;99.90;;;;;;4941090;29;20237;-67
2022/02/21 12:01:19;;;;;;;5.10;1.40;;;6.00;99.90;;;;;;4954873;28;20217;-67
2022/02/21 12:04:12;;;;;;;1.77;1.30;;;5.90;99.90;;;;;;4954830;28;20674;-67
2022/02/21 12:06:51;;;;;;;8.38;4.50;;;5.80;99.90;;;;;;4936341;28;20222;-67
2022/02/21 12:09:18;;;;;;;8.68;4.43;;;5.90;99.90;;;;;;4921253;29;20227;-67
2022/02/21 12:11:44;;;;;;;5.05;2.45;;;5.90;99.90;;;;;;4916353;29;20274;-67
2022/02/21 12:14:16;;;;;;;3.22;2.38;;;5.90;99.90;;;;;;4915425;29;20699;-67
2022/02/21 12:17:05;;;;;;;3.90;2.95;;;5.90;99.90;;;;;;4933759;29;20206;-68
2022/02/21 12:19:33;;;;;;;6.22;4.32;;;6.00;99.90;;;;;;4934903;29;20316;-67
2022/02/21 12:22:16;;;;;;;3.05;1.92;;;6.00;99.90;;;;;;4935770;29;20288;-67
2022/02/21 12:25:14;;;;;;;2.47;1.65;;;5.90;99.90;;;;;;4933643;29;20213;-66
2022/02/21 12:28:12;;;;;;;6.72;2.40;;;5.90;99.90;;;;;;4916588;29;20210;-67
2022/02/21 12:30:41;;;;;;;5.53;2.28;;;5.80;99.90;;;;;;4878193;29;20203;-67
2022/02/21 12:33:09;;;;;;;2.38;2.28;;;5.80;99.90;;;;;;4912103;29;20203;-68
2022/02/21 12:35:52;;;;;;;2.90;1.20;;;5.80;99.90;;;;;;4926465;29;20653;-68
2022/02/21 12:38:22;;;;;;;7.85;1.90;;;5.80;99.90;;;;;;4934912;29;20249;-66
2022/02/21 12:40:54;;;;;;;7.88;5.13;;;5.70;99.90;;;;;;4934838;29;20245;-66
2022/02/21 12:43:21;;;;;;;4.97;3.92;;;5.70;99.90;;;;;;4934397;29;20301;-67
2022/02/21 12:45:49;;;;;;;2.42;2.33;;;5.70;99.90;;;;;;4934228;29;20220;-67
2022/02/21 12:48:16;;;;;;;4.32;2.75;;;5.70;99.90;;;;;;4934716;29;20245;-67
2022/02/21 12:50:42;;;;;;;3.28;1.55;;;5.70;99.90;;;;;;4930029;29;20205;-67
2022/02/21 12:53:09;;;;;;;5.60;1.30;;;5.70;99.90;;;;;;4934235;29;20214;-67
2022/02/21 12:55:47;;;;;;;4.72;2.42;;;5.70;99.90;;;;;;4934482;29;20237;-67
2022/02/21 12:58:14;;;;;;;3.50;1.52;;;5.60;99.90;;;;;;4934661;29;20241;-66
2022/02/21 13:00:40;;;;;;;1.50;1.50;;;5.50;99.90;;;;;;4933446;29;20217;-66
2022/02/21 13:03:07;;;;;;;4.95;3.13;;;5.50;99.90;;;;;;4934236;29;20221;-67
2022/02/21 13:05:34;;;;;;;1.30;1.20;;;5.40;99.90;;;;;;4934444;29;20210;-66
2022/02/21 13:08:03;;;;;;;3.00;2.03;;;5.40;99.90;;;;;;4934761;29;20234;-67
2022/02/21 13:10:42;;;;;;;3.00;2.20;;;5.40;99.90;;;;;;4934110;29;20209;-67
2022/02/21 13:13:11;;;;;;;1.95;1.85;;;5.30;99.90;;;;;;4933215;29;20297;-67
2022/02/21 13:15:38;;;;;;;9.70;7.78;;;5.30;99.90;;;;;;4933773;29;20222;-66
2022/02/21 13:18:05;;;;;;;1.70;1.60;;;5.20;99.90;;;;;;4934379;29;20234;-67
2022/02/21 13:20:44;;;;;;;1.40;1.40;;;5.10;99.90;;;;;;4933746;29;20666;-66
2022/02/21 13:23:11;;;;;;;2.40;1.92;;;5.10;99.90;;;;;;4933480;29;20209;-67
2022/02/21 13:25:37;;;;;;;1.50;1.50;;;5.00;99.90;;;;;;4933505;29;20202;-66
2022/02/21 13:28:20;;;;;;;3.50;3.40;;;5.00;99.90;;;;;;4933944;29;20229;-67
2022/02/21 13:30:46;;;;;;;2.53;2.40;;;5.00;99.90;;;;;;4928529;29;20210;-67
2022/02/21 13:33:13;;;;;;;2.40;1.40;;;4.90;99.90;;;;;;4930597;29;20209;-67
2022/02/21 13:35:41;;;;;;;1.50;1.50;;;4.90;99.90;;;;;;4933851;29;20326;-67
2022/02/21 13:38:08;;;;;;;1.83;1.83;;;4.80;99.90;;;;;;4933858;29;20687;-67
2022/02/21 13:40:35;;;;;;;2.20;2.10;;;4.80;99.90;;;;;;4932536;29;20206;-67
2022/02/21 13:43:05;;;;;;;1.77;1.67;;;4.80;99.90;;;;;;4934202;29;20627;-67
2022/02/21 13:45:34;;;;;;;2.50;1.65;;;4.70;99.90;;;;;;4925872;29;20234;-67
2022/02/21 13:48:04;;;;;;;2.17;2.08;;;4.70;99.90;;;;;;4933555;29;20663;-68
2022/02/21 13:50:41;;;;;;;2.78;2.28;;;4.70;99.90;;;;;;4932792;29;20237;-68
2022/02/21 13:53:10;;;;;;;1.52;1.52;;;4.70;99.90;;;;;;4934195;29;20214;-68
2022/02/21 13:55:37;;;;;;;2.97;2.88;;;4.70;99.90;;;;;;4933547;29;20230;-68
2022/02/21 13:58:06;;;;;;;2.97;2.78;;;4.60;99.90;;;;;;4933590;29;20305;-65
2022/02/21 14:00:40;;;;;;;2.38;2.35;;;4.60;99.90;;;;;;4930507;29;20298;-68
2022/02/21 14:03:07;;;;;;;2.15;2.00;;;4.60;99.90;;;;;;4914629;29;20269;-68
2022/02/21 14:05:34;;;;;;;2.40;2.30;;;4.70;99.90;;;;;;4914971;29;20258;-68
2022/02/21 14:08:02;;;;;;;2.17;2.15;;;4.60;99.90;;;;;;4914839;29;20234;-67
2022/02/21 14:10:29;;;;;;;2.92;2.60;;;4.60;99.90;;;;;;4915307;29;20229;-67
2022/02/21 14:12:57;;;;;;;3.65;2.90;;;4.60;99.90;;;;;;4933655;29;20219;-67
2022/02/21 14:15:24;;;;;;;11.68;3.40;;;4.60;99.90;;;;;;4932663;29;20277;-67
2022/02/21 14:17:52;;;;;;;4.68;4.47;;;4.60;99.90;;;;;;4933514;29;20259;-67
2022/02/21 14:20:19;;;;;;;2.20;2.20;;;4.50;99.90;;;;;;4932856;29;20265;-68
2022/02/21 14:22:45;;;;;;;5.55;5.03;;;4.50;99.90;;;;;;4933481;29;20316;-68
2022/02/21 14:25:12;;;;;;;3.13;2.67;;;4.50;99.90;;;;;;4933131;29;20233;-68
2022/02/21 14:27:39;;;;;;;2.90;2.80;;;4.50;99.90;;;;;;4933334;29;20683;-68
2022/02/21 14:30:07;;;;;;;5.65;5.35;;;4.50;99.90;;;;;;4933364;29;20213;-68
2022/02/21 14:32:34;;;;;;;1.80;1.80;;;4.50;99.90;;;;;;4933595;29;20538;-68
2022/02/21 14:35:03;;;;;;;2.33;2.13;;;4.50;99.90;;;;;;4931415;29;20221;-68
2022/02/21 14:37:30;;;;;;;3.00;2.80;;;4.50;99.90;;;;;;4937702;29;20581;-68
2022/02/21 14:39:56;;;;;;;4.30;4.00;;;4.60;99.90;;;;;;4937512;29;20205;-68
2022/02/21 14:42:23;;;;;;;7.55;6.80;;;4.60;99.90;;;;;;4950956;29;20269;-68
2022/02/21 14:44:50;;;;;;;10.02;7.32;;;4.60;99.90;;;;;;4953831;29;20205;-66
2022/02/21 14:47:16;;;;;;;7.43;6.20;;;4.60;99.90;;;;;;4951353;29;20218;-67
2022/02/21 14:49:44;;;;;;;2.35;2.22;;;4.50;99.90;;;;;;4939369;29;20246;-69
2022/02/21 14:52:12;;;;;;;1.75;1.75;;;4.60;99.90;;;;;;4936864;29;20304;-67
2022/02/21 14:54:38;;;;;;;2.80;2.60;;;4.50;99.90;;;;;;4937128;29;20281;-67
2022/02/21 14:57:08;;;;;;;2.80;2.58;;;4.50;99.90;;;;;;4937132;29;20214;-67
2022/02/21 14:59:35;;;;;;;1.95;1.95;;;4.50;99.90;;;;;;4935923;29;20234;-67
2022/02/21 15:02:02;;;;;;;2.45;2.25;;;4.50;99.90;;;;;;4925487;29;20214;-68
2022/02/21 15:04:28;;;;;;;2.00;2.00;;;4.60;99.90;;;;;;4917628;29;20215;-67
2022/02/21 15:06:55;;;;;;;3.42;3.08;;;4.60;99.90;;;;;;4917801;29;20218;-67
2022/02/21 15:09:23;;;;;;;2.88;2.67;;;4.60;99.90;;;;;;4917430;29;20239;-67
2022/02/21 15:11:50;;;;;;;3.38;3.10;;;4.60;99.90;;;;;;4926379;29;20213;-67
2022/02/21 15:14:16;;;;;;;2.10;2.00;;;4.60;99.90;;;;;;4935816;29;20205;-67
2022/02/21 15:16:43;;;;;;;2.08;2.03;;;4.60;99.90;;;;;;4937016;29;20210;-67
2022/02/21 15:19:10;;;;;;;2.40;2.33;;;4.60;99.90;;;;;;4936258;29;20269;-67
2022/02/21 15:21:37;;;;;;;1.92;1.83;;;4.60;99.90;;;;;;4935855;29;20330;-67
2022/02/21 15:24:05;;;;;;;2.08;1.98;;;4.60;99.90;;;;;;4936395;29;20241;-67
2022/02/21 15:26:34;;;;;;;3.05;2.42;;;4.60;99.90;;;;;;4936295;29;20585;-67
2022/02/21 15:29:01;;;;;;;2.67;2.58;;;4.70;99.90;;;;;;4935613;29;20234;-68
2022/02/21 15:31:28;;;;;;;2.78;2.67;;;4.70;99.90;;;;;;4935904;29;20201;-68
2022/02/21 15:33:55;;;;;;;3.20;3.10;;;4.70;99.90;;;;;;4936116;29;20217;-68
2022/02/21 15:36:21;;;;;;;3.55;3.30;;;4.80;99.90;;;;;;4936138;29;20230;-68
2022/02/21 15:38:48;;;;;;;3.00;2.80;;;4.80;99.90;;;;;;4929791;29;20233;-66
2022/02/21 15:41:15;;;;;;;2.67;2.60;;;4.70;99.90;;;;;;4931248;29;20206;-66
2022/02/21 15:43:43;;;;;;;3.58;3.38;;;4.70;99.90;;;;;;4935881;29;20210;-65
2022/02/21 15:46:10;;;;;;;3.28;3.17;;;4.70;99.90;;;;;;4935835;29;20218;-66
2022/02/21 15:48:36;;;;;;;3.13;2.97;;;4.60;99.90;;;;;;4935196;29;20233;-67
2022/02/21 15:51:03;;;;;;;2.85;2.70;;;4.60;99.90;;;;;;4932929;29;20589;-67
2022/02/21 15:53:32;;;;;;;4.00;3.30;;;4.60;99.90;;;;;;4916968;29;20274;-66
2022/02/21 15:55:59;;;;;;;3.08;2.90;;;4.60;99.90;;;;;;4916945;29;20345;-67
2022/02/21 15:58:26;;;;;;;9.30;5.22;;;4.60;99.90;;;;;;4917032;29;20373;-67
2022/02/21 16:00:54;;;;;;;2.25;2.17;;;4.60;99.90;;;;;;4916620;29;20266;-67
2022/02/21 16:03:21;;;;;;;2.53;2.45;;;4.70;99.90;;;;;;4935409;29;20310;-67
2022/02/21 16:05:48;;;;;;;2.28;2.08;;;4.70;99.90;;;;;;4935630;29;20537;-67
2022/02/21 16:08:14;;;;;;;2.88;2.67;;;4.70;99.90;;;;;;4935475;29;20234;-68
2022/02/21 16:10:41;;;;;;;4.38;3.97;;;4.70;99.90;;;;;;4927188;29;20269;-67
2022/02/21 16:13:07;;;;;;;3.97;2.50;;;4.70;99.90;;;;;;4919692;29;20213;-64
2022/02/21 16:15:34;;;;;;;3.90;3.60;;;4.70;99.90;;;;;;4927611;29;20288;-64
2022/02/21 16:18:02;;;;;;;4.07;3.65;;;4.70;99.90;;;;;;4935811;28;20226;-68
2022/02/21 16:20:30;;;;;;;1.90;1.90;;;4.70;99.90;;;;;;4934989;29;20209;-68
2022/02/21 16:22:56;;;;;;;3.30;3.08;;;4.70;99.90;;;;;;4934989;29;20205;-67
2022/02/21 16:25:23;;;;;;;7.13;3.63;;;4.70;99.90;;;;;;4935582;29;20261;-68
2022/02/21 16:27:50;;;;;;;4.15;3.38;;;4.70;99.90;;;;;;4933605;29;20279;-67
2022/02/21 16:30:16;;;;;;;3.78;3.50;;;4.70;99.90;;;;;;4937085;29;20240;-68
2022/02/21 16:32:44;;;;;;;3.78;3.55;;;4.60;99.90;;;;;;4938407;28;20245;-67
2022/02/21 16:35:12;;;;;;;6.68;4.25;;;4.70;99.90;;;;;;4930839;29;20226;-67
2022/02/21 16:37:40;;;;;;;7.15;3.97;;;4.70;99.90;;;;;;4928474;29;20292;-66
2022/02/21 16:40:09;;;;;;;6.13;5.40;;;4.70;99.90;;;;;;4942592;29;20217;-66
2022/02/21 16:42:36;;;;;;;6.90;5.32;;;4.70;99.90;;;;;;4922464;28;20666;-66
2022/02/21 16:45:04;;;;;;;6.13;5.00;;;4.70;99.90;;;;;;4917791;29;20206;-67
2022/02/21 16:47:31;;;;;;;4.05;3.78;;;4.70;99.90;;;;;;4923465;29;20206;-67
2022/02/21 16:49:57;;;;;;;3.90;3.70;;;4.70;99.90;;;;;;4925575;29;20317;-68
2022/02/21 16:52:25;;;;;;;2.30;2.20;;;4.70;99.90;;;;;;4934754;29;20202;-67
2022/02/21 16:54:52;;;;;;;3.17;2.90;;;4.70;99.90;;;;;;4915455;29;20221;-67
2022/02/21 16:57:19;;;;;;;3.30;3.00;;;4.70;99.90;;;;;;4917478;29;20213;-65
2022/02/21 16:59:46;;;;;;;2.28;2.20;;;4.70;99.90;;;;;;4936576;29;20313;-67
2022/02/21 17:02:13;;;;;;;2.70;2.55;;;4.70;99.90;;;;;;4939705;29;20234;-66
2022/02/21 17:04:40;;;;;;;3.10;2.90;;;4.70;99.90;;;;;;4926208;29;20667;-68
2022/02/21 17:07:07;;;;;;;2.40;2.35;;;4.70;99.90;;;;;;4928732;29;20211;-67
2022/02/21 17:09:35;;;;;;;2.88;2.67;;;4.70;99.90;;;;;;4922151;29;20293;-67
2022/02/21 17:12:01;;;;;;;2.75;2.65;;;4.70;99.90;;;;;;4930045;29;20254;-67
2022/02/21 17:14:28;;;;;;;2.78;2.67;;;4.80;99.90;;;;;;4927083;29;20302;-68
2022/02/21 17:16:55;;;;;;;3.17;2.97;;;4.80;99.90;;;;;;4922924;29;20623;-67
2022/02/21 17:19:21;;;;;;;2.75;2.75;;;4.80;99.90;;;;;;4933066;29;20229;-67
2022/02/21 17:21:48;;;;;;;3.17;2.97;;;4.80;99.90;;;;;;4921607;29;20301;-67
2022/02/21 17:24:15;;;;;;;2.33;2.22;;;4.80;99.90;;;;;;4925154;29;20210;-67
2022/02/21 17:26:43;;;;;;;2.15;1.92;;;4.80;99.90;;;;;;4929709;29;20206;-68
2022/02/21 17:29:09;;;;;;;2.42;2.33;;;4.80;99.90;;;;;;4924090;29;20238;-67
2022/02/21 17:31:36;;;;;;;2.30;2.20;;;4.80;99.90;;;;;;4919974;29;20273;-67
2022/02/21 17:34:03;;;;;;;2.22;2.22;;;4.80;99.90;;;;;;4941208;28;20268;-67
2022/02/21 17:36:31;;;;;;;3.17;2.78;;;4.80;99.90;;;;;;4933058;28;20230;-67
2022/02/21 17:38:58;;;;;;;2.75;2.55;;;4.80;99.90;;;;;;4921508;29;20593;-66
2022/02/21 17:41:25;;;;;;;6.47;3.15;;;4.80;99.90;;;;;;4931162;29;20205;-67
2022/02/21 17:43:53;;;;;;;3.90;1.70;;;4.90;99.90;;;;;;4919358;29;20573;-67
2022/02/21 17:46:19;;;;;;;2.63;2.42;;;4.80;99.90;;;;;;4930857;29;20548;-67
2022/02/21 17:48:46;;;;;;;6.40;4.05;;;4.80;99.90;;;;;;4930110;29;20284;-66
2022/02/21 17:51:13;;;;;;;4.28;3.92;;;4.80;99.90;;;;;;4935695;29;20293;-67
2022/02/21 17:53:39;;;;;;;3.10;2.83;;;4.90;99.90;;;;;;4935672;28;20207;-67
2022/02/21 17:56:06;;;;;;;2.80;2.30;;;4.80;99.90;;;;;;4916323;29;20225;-66
2022/02/21 17:58:33;;;;;;;2.30;2.20;;;4.90;99.90;;;;;;4926080;29;20237;-67
2022/02/21 18:01:01;;;;;;;2.55;2.08;;;4.90;99.90;;;;;;4920264;29;20206;-67
2022/02/21 18:03:28;;;;;;;2.03;1.83;;;4.90;99.90;;;;;;4931290;29;20830;-67